createdAt,value
2019-05-19T02:24:22.986Z,4.00
2019-05-19T02:25:22.961Z,4.00
2019-05-19T02:26:22.943Z,4.00
2019-05-19T02:27:22.932Z,4.00
2019-05-19T02:28:22.954Z,4.00
2019-05-19T02:29:22.908Z,4.00
2019-05-19T02:30:22.899Z,4.00
2019-05-19T02:32:22.880Z,4.00
2019-05-19T02:33:22.866Z,4.00
2019-05-19T02:34:22.854Z,4.00
2019-05-19T02:35:22.853Z,8.00
2019-05-19T02:36:22.833Z,8.00
2019-05-19T02:37:22.818Z,4.00
2019-05-19T02:38:22.811Z,8.00
2019-05-19T02:39:22.795Z,8.00
2019-05-19T02:40:22.794Z,8.00
2019-05-19T02:41:22.772Z,12.00
2019-05-19T02:42:22.761Z,12.00
2019-05-19T02:43:22.750Z,16.00
2019-05-19T02:44:22.739Z,16.00
2019-05-19T02:45:22.725Z,20.00
2019-05-19T02:46:22.718Z,20.00
2019-05-19T02:47:22.711Z,24.00
2019-05-19T02:48:22.695Z,24.00
2019-05-19T02:49:22.679Z,28.00
2019-05-19T02:50:22.679Z,32.00
2019-05-19T02:51:22.662Z,36.00
2019-05-19T02:52:22.647Z,40.00
2019-05-19T02:53:22.634Z,44.00
2019-05-19T02:55:22.616Z,56.00
2019-05-19T02:56:22.601Z,64.00
2019-05-19T02:57:22.590Z,72.00
2019-05-19T02:58:22.583Z,80.00
2019-05-19T02:59:22.568Z,92.00
2019-05-19T03:00:22.554Z,104.00
2019-05-19T03:01:22.543Z,116.00
2019-05-19T03:02:22.544Z,128.00
2019-05-19T03:03:22.523Z,140.00
2019-05-19T03:04:22.509Z,156.00
2019-05-19T03:05:22.504Z,168.00
2019-05-19T03:06:22.486Z,184.00
2019-05-19T03:07:22.476Z,196.00
2019-05-19T03:08:22.464Z,212.00
2019-05-19T03:09:22.455Z,228.00
2019-05-19T03:10:22.442Z,244.00
2019-05-19T03:11:22.428Z,256.00
2019-05-19T03:12:22.418Z,272.00
2019-05-19T03:13:22.406Z,284.00
2019-05-19T03:14:22.396Z,300.00
2019-05-19T03:15:22.386Z,316.00
2019-05-19T03:16:22.371Z,336.00
2019-05-19T03:17:22.361Z,352.00
2019-05-19T03:18:22.359Z,376.00
2019-05-19T03:19:22.339Z,396.00
2019-05-19T03:20:22.329Z,424.00
2019-05-19T03:21:22.325Z,456.00
2019-05-19T03:22:22.307Z,488.00
2019-05-19T03:23:22.439Z,520.00
2019-05-19T03:24:22.287Z,548.00
2019-05-19T03:25:22.272Z,584.00
2019-05-19T03:26:22.256Z,616.00
2019-05-19T03:27:22.251Z,652.00
2019-05-19T03:28:22.232Z,684.00
2019-05-19T03:29:22.227Z,716.00
2019-05-19T03:30:22.216Z,752.00
2019-05-19T03:31:22.365Z,780.00
2019-05-19T03:32:22.187Z,816.00
2019-05-19T03:33:22.184Z,848.00
2019-05-19T03:34:22.172Z,880.00
2019-05-19T03:35:22.153Z,916.00
2019-05-19T03:36:22.141Z,948.00
2019-05-19T03:37:22.136Z,984.00
2019-05-19T03:38:22.124Z,1024.00
2019-05-19T03:39:22.108Z,1064.00
2019-05-19T03:40:22.103Z,1136.00
2019-05-19T03:41:22.088Z,1232.00
2019-05-19T03:42:22.077Z,1296.00
2019-05-19T03:43:22.070Z,1336.00
2019-05-19T03:44:22.051Z,1372.00
2019-05-19T03:45:22.045Z,1416.00
2019-05-19T03:46:22.031Z,1460.00
2019-05-19T03:47:22.020Z,1504.00
2019-05-19T03:48:22.005Z,1544.00
2019-05-19T03:49:21.993Z,1540.00
2019-05-19T03:50:21.981Z,1512.00
2019-05-19T03:51:30.828Z,1464.00
2019-05-19T03:52:22.988Z,1448.00
2019-05-19T03:53:21.967Z,1484.00
2019-05-19T03:54:21.939Z,1528.00
2019-05-19T03:55:21.926Z,1572.00
2019-05-19T03:56:21.920Z,1640.00
2019-05-19T03:57:21.906Z,1732.00
2019-05-19T03:58:21.890Z,1824.00
2019-05-19T03:59:21.882Z,1928.00
2019-05-19T04:00:21.875Z,2016.00
2019-05-19T04:01:21.857Z,2080.00
2019-05-19T04:02:21.851Z,2136.00
2019-05-19T04:03:21.835Z,2232.00
2019-05-19T04:04:21.826Z,2308.00
2019-05-19T04:05:21.817Z,2376.00
2019-05-19T04:06:21.804Z,2428.00
2019-05-19T04:07:21.792Z,2500.00
2019-05-19T04:08:21.779Z,2524.00
2019-05-19T04:09:21.769Z,2572.00
2019-05-19T04:10:21.757Z,2688.00
2019-05-19T04:11:21.743Z,2944.00
2019-05-19T04:12:21.737Z,3124.00
2019-05-19T04:13:21.719Z,3268.00
2019-05-19T04:14:21.713Z,3028.00
2019-05-19T04:15:21.726Z,3588.00
2019-05-19T04:16:21.687Z,3920.00
2019-05-19T04:17:21.678Z,3832.00
2019-05-19T04:18:21.661Z,3524.00
2019-05-19T04:19:21.651Z,3584.00
2019-05-19T04:20:21.651Z,4184.00
2019-05-19T04:21:21.627Z,4028.00
2019-05-19T04:22:21.619Z,4304.00
2019-05-19T04:23:21.608Z,4000.00
2019-05-19T04:24:21.596Z,3992.00
2019-05-19T04:25:21.581Z,4172.00
2019-05-19T04:26:21.570Z,4540.00
2019-05-19T04:27:21.559Z,4648.00
2019-05-19T04:28:21.546Z,4792.00
2019-05-19T04:29:21.539Z,5312.00
2019-05-19T04:30:21.524Z,4964.00
2019-05-19T04:31:21.512Z,4400.00
2019-05-19T04:32:21.509Z,3896.00
2019-05-19T04:33:21.489Z,3940.00
2019-05-19T04:34:21.478Z,4048.00
2019-05-19T04:35:21.476Z,4164.00
2019-05-19T04:36:21.454Z,4304.00
2019-05-19T04:37:21.443Z,4420.00
2019-05-19T04:38:21.444Z,4520.00
2019-05-19T04:39:21.632Z,4612.00
2019-05-19T04:40:21.413Z,5228.00
2019-05-19T04:41:21.399Z,6996.00
2019-05-19T04:42:21.388Z,8380.00
2019-05-19T04:43:21.381Z,8500.00
2019-05-19T04:44:21.379Z,7772.00
2019-05-19T04:45:21.356Z,6684.00
2019-05-19T04:46:21.363Z,5696.00
2019-05-19T04:47:21.374Z,5696.00
2019-05-19T04:48:21.372Z,5880.00
2019-05-19T04:49:21.375Z,6712.00
2019-05-19T04:50:21.311Z,8040.00
2019-05-19T04:51:21.319Z,8276.00
2019-05-19T04:52:21.320Z,8512.00
2019-05-19T04:53:21.321Z,9848.00
2019-05-19T04:54:21.256Z,11312.00
2019-05-19T04:55:21.244Z,11392.00
2019-05-19T04:56:21.233Z,11300.00
2019-05-19T04:57:21.232Z,11760.00
2019-05-19T04:58:21.211Z,11388.00
2019-05-19T04:59:21.206Z,10360.00
2019-05-19T05:00:21.198Z,9884.00
2019-05-19T05:01:21.182Z,9844.00
2019-05-19T05:02:21.168Z,8812.00
2019-05-19T05:03:21.156Z,8148.00
2019-05-19T05:04:21.152Z,7752.00
2019-05-19T05:05:21.134Z,7056.00
2019-05-19T05:06:21.131Z,6776.00
2019-05-19T05:07:21.119Z,6864.00
2019-05-19T05:08:29.839Z,7596.00
2019-05-19T05:09:22.112Z,8876.00
2019-05-19T05:10:21.076Z,8964.00
2019-05-19T05:11:21.066Z,10828.00
2019-05-19T05:12:21.055Z,10476.00
2019-05-19T05:13:21.047Z,11508.00
2019-05-19T05:14:21.029Z,13096.00
2019-05-19T05:15:21.018Z,13896.00
2019-05-19T05:16:21.033Z,13088.00
2019-05-19T05:17:21.016Z,11632.00
2019-05-19T05:18:20.983Z,10144.00
2019-05-19T05:19:20.972Z,11432.00
2019-05-19T05:20:20.963Z,11744.00
2019-05-19T05:21:20.951Z,11824.00
2019-05-19T05:22:22.391Z,12160.00
2019-05-19T05:23:20.930Z,12012.00
2019-05-19T05:24:20.918Z,11812.00
2019-05-19T05:25:20.906Z,11020.00
2019-05-19T05:26:20.895Z,10364.00
2019-05-19T05:27:20.892Z,10560.00
2019-05-19T05:28:20.875Z,10832.00
2019-05-19T05:29:20.858Z,9760.00
2019-05-19T05:30:20.846Z,8444.00
2019-05-19T05:31:20.835Z,7400.00
2019-05-19T05:32:20.828Z,7004.00
2019-05-19T05:33:20.814Z,6736.00
2019-05-19T05:34:20.803Z,7040.00
2019-05-19T05:35:20.796Z,7764.00
2019-05-19T05:36:20.779Z,9448.00
2019-05-19T05:37:20.773Z,11332.00
2019-05-19T05:38:20.758Z,13456.00
2019-05-19T05:39:20.754Z,13512.00
2019-05-19T05:40:20.736Z,11996.00
2019-05-19T05:41:20.723Z,13008.00
2019-05-19T05:42:20.731Z,11956.00
2019-05-19T05:43:20.702Z,12060.00
2019-05-19T05:44:20.691Z,10996.00
2019-05-19T05:45:20.678Z,10824.00
2019-05-19T05:46:20.678Z,11060.00
2019-05-19T05:47:20.656Z,12112.00
2019-05-19T05:48:20.646Z,12856.00
2019-05-19T05:49:20.637Z,11212.00
2019-05-19T05:50:20.624Z,10280.00
2019-05-19T05:51:20.633Z,12024.00
2019-05-19T05:52:20.600Z,11848.00
2019-05-19T05:53:20.589Z,13716.00
2019-05-19T05:54:20.581Z,19712.00
2019-05-19T05:55:20.566Z,21568.00
2019-05-19T05:56:20.560Z,24032.00
2019-05-19T05:57:20.569Z,23552.00
2019-05-19T05:58:20.534Z,23552.00
2019-05-19T05:59:20.522Z,25120.00
2019-05-19T06:00:20.515Z,27744.00
2019-05-19T06:01:20.500Z,27168.00
2019-05-19T06:02:20.491Z,24576.00
2019-05-19T06:03:20.477Z,22496.00
2019-05-19T06:04:20.468Z,24480.00
2019-05-19T06:05:20.456Z,24736.00
2019-05-19T06:06:20.464Z,25984.00
2019-05-19T06:07:20.442Z,29280.00
2019-05-19T06:08:20.427Z,30176.00
2019-05-19T06:09:20.411Z,25952.00
2019-05-19T06:10:20.401Z,20352.00
2019-05-19T06:11:20.388Z,18620.00
2019-05-19T06:12:20.379Z,20768.00
2019-05-19T06:13:20.366Z,28992.00
2019-05-19T06:14:20.357Z,31328.00
2019-05-19T06:15:20.345Z,30272.00
2019-05-19T06:16:20.337Z,29216.00
2019-05-19T06:17:20.320Z,29152.00
2019-05-19T06:18:20.312Z,29888.00
2019-05-19T06:19:20.301Z,29472.00
2019-05-19T06:20:20.286Z,19004.00
2019-05-19T06:21:20.282Z,27680.00
2019-05-19T06:22:20.265Z,31424.00
2019-05-19T06:23:20.257Z,24640.00
2019-05-19T06:24:20.252Z,25536.00
2019-05-19T06:25:20.261Z,30784.00
2019-05-19T06:26:20.226Z,30080.00
2019-05-19T06:27:20.215Z,30752.00
2019-05-19T06:28:20.198Z,34944.00
2019-05-19T06:29:20.193Z,37760.00
2019-05-19T06:30:20.190Z,37696.00
2019-05-19T06:31:20.167Z,36832.00
2019-05-19T06:32:20.174Z,35520.00
2019-05-19T06:33:20.144Z,36160.00
2019-05-19T06:34:20.134Z,36160.00
2019-05-19T06:35:20.125Z,35744.00
2019-05-19T06:36:20.110Z,35552.00
2019-05-19T06:37:20.101Z,35040.00
2019-05-19T06:38:20.090Z,33824.00
2019-05-19T06:39:20.082Z,34144.00
2019-05-19T06:40:20.067Z,37120.00
2019-05-19T06:41:20.056Z,36448.00
2019-05-19T06:42:20.046Z,33056.00
2019-05-19T06:43:20.034Z,31840.00
2019-05-19T06:44:20.020Z,29376.00
2019-05-19T06:45:20.012Z,36192.00
2019-05-19T06:46:20.008Z,37600.00
2019-05-19T06:47:19.989Z,36448.00
2019-05-19T06:48:19.978Z,36704.00
2019-05-19T06:49:19.967Z,37856.00
2019-05-19T06:50:19.957Z,38176.00
2019-05-19T06:51:19.948Z,38912.00
2019-05-19T06:52:19.934Z,38880.00
2019-05-19T06:53:19.922Z,35328.00
2019-05-19T06:54:19.934Z,32992.00
2019-05-19T06:55:19.902Z,35104.00
2019-05-19T06:56:19.893Z,36448.00
2019-05-19T06:57:19.887Z,36352.00
2019-05-19T06:58:19.871Z,37696.00
2019-05-19T06:59:19.859Z,41376.00
2019-05-19T07:00:19.846Z,42368.00
2019-05-19T07:01:19.840Z,41856.00
2019-05-19T07:02:19.949Z,40672.00
2019-05-19T07:03:19.819Z,38624.00
2019-05-19T07:04:19.804Z,40672.00
2019-05-19T07:05:19.791Z,41984.00
2019-05-19T07:06:19.779Z,40768.00
2019-05-19T07:07:19.768Z,39456.00
2019-05-19T07:08:19.758Z,37952.00
2019-05-19T07:09:19.749Z,38368.00
2019-05-19T07:10:19.735Z,38656.00
2019-05-19T07:11:19.726Z,39840.00
2019-05-19T07:12:19.716Z,41280.00
2019-05-19T07:13:19.707Z,44608.00
2019-05-19T07:14:19.697Z,44832.00
2019-05-19T07:15:19.683Z,43712.00
2019-05-19T07:16:19.674Z,40736.00
2019-05-19T07:17:19.658Z,41056.00
2019-05-19T07:18:19.648Z,41888.00
2019-05-19T07:19:19.640Z,40320.00
2019-05-19T07:20:19.631Z,40192.00
2019-05-19T07:21:19.616Z,39904.00
2019-05-19T07:22:19.651Z,41984.00
2019-05-19T07:23:27.927Z,41120.00
2019-05-19T07:24:44.060Z,40416.00
2019-05-19T07:25:44.048Z,43456.00
2019-05-19T07:26:44.041Z,45152.00
2019-05-19T07:27:44.028Z,45408.00
2019-05-19T07:28:44.018Z,45760.00
2019-05-19T07:29:44.013Z,43456.00
2019-05-19T07:30:43.997Z,45408.00
2019-05-19T07:31:43.985Z,47136.00
2019-05-19T07:32:43.978Z,45088.00
2019-05-19T07:33:43.968Z,44960.00
2019-05-19T07:34:43.953Z,44928.00
2019-05-19T07:35:43.946Z,45536.00
2019-05-19T07:36:43.938Z,43744.00
2019-05-19T07:37:43.928Z,45376.00
2019-05-19T07:38:43.913Z,47776.00
2019-05-19T07:39:43.901Z,49632.00
2019-05-19T07:40:43.892Z,49184.00
2019-05-19T07:41:43.881Z,47840.00
2019-05-19T07:42:43.869Z,46752.00
2019-05-19T07:43:43.864Z,46784.00
2019-05-19T07:44:45.361Z,45824.00
2019-05-19T07:45:43.842Z,45408.00
2019-05-19T07:46:43.842Z,46880.00
2019-05-19T07:47:43.816Z,47392.00
2019-05-19T07:48:43.808Z,48160.00
2019-05-19T07:49:43.802Z,48448.00
2019-05-19T07:50:43.791Z,48096.00
2019-05-19T07:51:43.778Z,48544.00
2019-05-19T07:52:43.791Z,50144.00
2019-05-19T07:53:43.757Z,49728.00
2019-05-19T07:54:43.800Z,48256.00
2019-05-19T07:55:43.739Z,50176.00
2019-05-19T07:56:43.804Z,53216.00
2019-05-19T07:57:43.720Z,57280.00
2019-05-19T07:58:43.738Z,59584.00
2019-05-19T07:59:43.698Z,58144.00
2019-05-19T08:00:43.697Z,54784.00
2019-05-19T08:01:43.671Z,51584.00
2019-05-19T08:02:43.659Z,49024.00
2019-05-19T08:03:43.654Z,52288.00
2019-05-19T08:04:43.646Z,50560.00
2019-05-19T08:05:43.628Z,53760.00
2019-05-19T08:06:43.621Z,53696.00
2019-05-19T08:07:43.608Z,54560.00
2019-05-19T08:08:43.600Z,54816.00
2019-05-19T08:09:43.586Z,58144.00
2019-05-19T08:10:43.605Z,57792.00
2019-05-19T08:11:43.566Z,59392.00
2019-05-19T08:12:43.559Z,62528.00
2019-05-19T08:13:43.551Z,61728.00
2019-05-19T08:14:43.539Z,60704.00
2019-05-19T08:15:43.530Z,55392.00
2019-05-19T08:16:43.525Z,53952.00
2019-05-19T08:17:43.507Z,56000.00
2019-05-19T08:18:43.494Z,56512.00
2019-05-19T08:19:43.487Z,60896.00
2019-05-19T08:20:43.474Z,62144.00
2019-05-19T08:21:43.463Z,62656.00
2019-05-19T08:22:43.482Z,61056.00
2019-05-19T08:23:58.427Z,60832.00
2019-05-19T08:25:07.920Z,58560.00
2019-05-19T08:26:07.904Z,59808.00
2019-05-19T08:27:07.901Z,64160.00
2019-05-19T08:28:09.128Z,63488.00
2019-05-19T08:29:07.874Z,61600.00
2019-05-19T08:30:07.865Z,60224.00
2019-05-19T08:31:07.854Z,58144.00
2019-05-19T08:32:07.874Z,57888.00
2019-05-19T08:33:07.874Z,60640.00
2019-05-19T08:34:08.097Z,62176.00
2019-05-19T08:35:07.816Z,67616.00
2019-05-19T08:36:07.800Z,67488.00
2019-05-19T08:37:07.794Z,69856.00
2019-05-19T08:38:07.783Z,71040.00
2019-05-19T08:39:07.769Z,66304.00
2019-05-19T08:40:07.768Z,64736.00
2019-05-19T08:41:07.761Z,65632.00
2019-05-19T08:42:07.741Z,64416.00
2019-05-19T08:43:07.727Z,66880.00
2019-05-19T08:44:07.718Z,64288.00
2019-05-19T08:45:07.735Z,60256.00
2019-05-19T08:46:07.704Z,59136.00
2019-05-19T08:47:07.687Z,59232.00
2019-05-19T08:48:07.678Z,64032.00
2019-05-19T08:49:07.668Z,65536.00
2019-05-19T08:50:07.665Z,65728.00
2019-05-19T08:51:07.653Z,67008.00
2019-05-19T08:52:07.637Z,65504.00
2019-05-19T08:53:07.633Z,69152.00
2019-05-19T08:54:15.043Z,69216.00
2019-05-19T08:56:32.075Z,70720.00
2019-05-19T08:57:32.087Z,67168.00
2019-05-19T08:58:32.054Z,68128.00
2019-05-19T08:59:32.046Z,65408.00
2019-05-19T09:00:36.144Z,60832.00
2019-05-19T09:01:56.504Z,61120.00
2019-05-19T09:02:56.493Z,63584.00
2019-05-19T09:03:56.481Z,63648.00
2019-05-19T09:04:56.471Z,65664.00
2019-05-19T09:05:56.463Z,65664.00
2019-05-19T09:06:56.455Z,63392.00
2019-05-19T09:07:56.442Z,61344.00
2019-05-19T09:08:56.433Z,58912.00
2019-05-19T09:09:56.425Z,66048.00
2019-05-19T09:10:56.411Z,71040.00
2019-05-19T09:11:56.406Z,71296.00
2019-05-19T09:12:56.395Z,72128.00
2019-05-19T09:13:56.420Z,68512.00
2019-05-19T09:14:56.372Z,65440.00
2019-05-19T09:15:56.366Z,64640.00
2019-05-19T09:16:56.360Z,67232.00
2019-05-19T09:17:56.388Z,68608.00
2019-05-19T09:18:56.331Z,69184.00
2019-05-19T09:19:56.322Z,71744.00
2019-05-19T09:20:56.313Z,73440.00
2019-05-19T09:21:56.303Z,72768.00
2019-05-19T09:22:56.292Z,73824.00
2019-05-19T09:23:56.328Z,66976.00
2019-05-19T09:24:56.270Z,65984.00
2019-05-19T09:25:56.263Z,67424.00
2019-05-19T09:26:56.271Z,68064.00
2019-05-19T09:27:56.249Z,69824.00
2019-05-19T09:28:56.236Z,66272.00
2019-05-19T09:29:56.226Z,63552.00
2019-05-19T09:30:56.211Z,61280.00
2019-05-19T09:31:56.210Z,61536.00
2019-05-19T09:32:56.193Z,64704.00
2019-05-19T09:33:56.182Z,68736.00
2019-05-19T09:34:56.176Z,69056.00
2019-05-19T09:35:56.162Z,70304.00
2019-05-19T09:36:56.154Z,71264.00
2019-05-19T09:37:56.143Z,71392.00
2019-05-19T09:38:56.133Z,70592.00
2019-05-19T09:39:56.122Z,71008.00
2019-05-19T09:40:56.112Z,71744.00
2019-05-19T09:41:56.104Z,71424.00
2019-05-19T09:42:56.091Z,69760.00
2019-05-19T09:43:56.115Z,69984.00
2019-05-19T09:44:56.074Z,68544.00
2019-05-19T09:45:56.066Z,70592.00
2019-05-19T09:46:56.054Z,71456.00
2019-05-19T09:47:56.044Z,70240.00
2019-05-19T09:48:56.038Z,71680.00
2019-05-19T09:49:56.024Z,73248.00
2019-05-19T09:50:56.145Z,75008.00
2019-05-19T09:51:56.005Z,75520.00
2019-05-19T09:52:55.995Z,76576.00
2019-05-19T09:53:55.991Z,74624.00
2019-05-19T09:54:56.019Z,72608.00
2019-05-19T09:55:55.965Z,71776.00
2019-05-19T09:56:55.959Z,70560.00
2019-05-19T09:57:55.946Z,69152.00
2019-05-19T09:58:55.937Z,68192.00
2019-05-19T09:59:55.931Z,66816.00
2019-05-19T10:00:55.925Z,70528.00
2019-05-19T10:01:55.918Z,71968.00
2019-05-19T10:02:55.900Z,72640.00
2019-05-19T10:03:55.888Z,73024.00
2019-05-19T10:04:55.879Z,74272.00
2019-05-19T10:05:55.870Z,74720.00
2019-05-19T10:06:56.029Z,70944.00
2019-05-19T10:07:55.849Z,69280.00
2019-05-19T10:08:55.894Z,70624.00
2019-05-19T10:09:55.835Z,67840.00
2019-05-19T10:10:55.822Z,70048.00
2019-05-19T10:11:55.816Z,72320.00
2019-05-19T10:12:55.808Z,71136.00
2019-05-19T10:13:55.797Z,71776.00
2019-05-19T10:14:55.789Z,72704.00
2019-05-19T10:15:55.780Z,71776.00
2019-05-19T10:16:55.763Z,73280.00
2019-05-19T10:17:55.752Z,73440.00
2019-05-19T10:18:55.746Z,72832.00
2019-05-19T10:19:55.734Z,74464.00
2019-05-19T10:20:55.726Z,75456.00
2019-05-19T10:21:55.718Z,73536.00
2019-05-19T10:22:55.703Z,72160.00
2019-05-19T10:23:55.696Z,72448.00
2019-05-19T10:25:10.857Z,75936.00
2019-05-19T10:25:56.693Z,78080.00
2019-05-19T10:26:55.670Z,77088.00
2019-05-19T10:27:55.660Z,76224.00
2019-05-19T10:28:55.645Z,74144.00
2019-05-19T10:29:55.638Z,73280.00
2019-05-19T10:30:55.635Z,71232.00
2019-05-19T10:31:55.622Z,68960.00
2019-05-19T10:32:58.640Z,67072.00
2019-05-19T10:33:55.604Z,67168.00
2019-05-19T10:34:55.611Z,68992.00
2019-05-19T10:35:55.581Z,69600.00
2019-05-19T10:36:55.576Z,70624.00
2019-05-19T10:37:55.569Z,72064.00
2019-05-19T10:38:55.551Z,72992.00
2019-05-19T10:39:55.543Z,74816.00
2019-05-19T10:40:55.532Z,75392.00
2019-05-19T10:41:55.525Z,73280.00
2019-05-19T10:42:55.513Z,72000.00
2019-05-19T10:43:55.508Z,72128.00
2019-05-19T10:44:55.492Z,71104.00
2019-05-19T10:45:55.483Z,70848.00
2019-05-19T10:46:55.474Z,69664.00
2019-05-19T10:47:55.466Z,68608.00
2019-05-19T10:48:55.454Z,71968.00
2019-05-19T10:49:55.450Z,70976.00
2019-05-19T10:50:55.437Z,72320.00
2019-05-19T10:51:55.430Z,72800.00
2019-05-19T10:52:55.421Z,73824.00
2019-05-19T10:53:55.407Z,74336.00
2019-05-19T10:54:55.401Z,74976.00
2019-05-19T10:55:55.389Z,74688.00
2019-05-19T10:56:55.379Z,77120.00
2019-05-19T10:57:55.369Z,73920.00
2019-05-19T10:58:55.360Z,72576.00
2019-05-19T10:59:55.355Z,72512.00
2019-05-19T11:00:55.344Z,71968.00
2019-05-19T11:01:55.333Z,74496.00
2019-05-19T11:02:55.324Z,18716.00
2019-05-19T11:03:55.313Z,75328.00
2019-05-19T11:04:55.305Z,76960.00
2019-05-19T11:05:55.299Z,52896.00
2019-05-19T11:06:55.294Z,81472.00
2019-05-19T11:07:55.276Z,84992.00
2019-05-19T11:08:55.269Z,85888.00
2019-05-19T11:09:55.263Z,75968.00
2019-05-19T11:10:55.259Z,92224.00
2019-05-19T11:11:55.239Z,24000.00
2019-05-19T11:12:55.228Z,24928.00
2019-05-19T11:13:55.219Z,75968.00
2019-05-19T11:14:55.210Z,77120.00
2019-05-19T11:15:55.207Z,33856.00
2019-05-19T11:16:55.191Z,17220.00
2019-05-19T11:17:55.187Z,18340.00
2019-05-19T11:18:55.171Z,30784.00
2019-05-19T11:19:55.160Z,16340.00
2019-05-19T11:20:55.151Z,32832.00
2019-05-19T11:21:55.153Z,74368.00
2019-05-19T11:22:55.134Z,58464.00
2019-05-19T11:23:55.121Z,16384.00
2019-05-19T11:24:55.112Z,68672.00
2019-05-19T11:25:55.102Z,67776.00
2019-05-19T11:26:55.096Z,68672.00
2019-05-19T11:27:55.085Z,71008.00
2019-05-19T11:28:55.073Z,72064.00
2019-05-19T11:29:55.063Z,72992.00
2019-05-19T11:30:55.053Z,70336.00
2019-05-19T11:31:55.047Z,26816.00
2019-05-19T11:32:55.033Z,19360.00
2019-05-19T11:33:55.027Z,65472.00
2019-05-19T11:34:55.014Z,66592.00
2019-05-19T11:35:55.003Z,68672.00
2019-05-19T11:36:54.997Z,67744.00
2019-05-19T11:37:54.983Z,68768.00
2019-05-19T11:38:54.974Z,60320.00
2019-05-19T11:39:54.964Z,51520.00
2019-05-19T11:40:54.957Z,13848.00
2019-05-19T11:41:54.944Z,10796.00
2019-05-19T11:42:54.941Z,11600.00
2019-05-19T11:43:54.929Z,62144.00
2019-05-19T11:44:54.928Z,61568.00
2019-05-19T11:45:54.906Z,17944.00
2019-05-19T11:46:54.896Z,11408.00
2019-05-19T11:47:54.890Z,11564.00
2019-05-19T11:48:54.875Z,12292.00
2019-05-19T11:49:54.868Z,14764.00
2019-05-19T11:50:54.860Z,66368.00
2019-05-19T11:51:54.845Z,13640.00
2019-05-19T11:52:54.835Z,13972.00
2019-05-19T11:53:54.826Z,64480.00
2019-05-19T11:54:54.826Z,63008.00
2019-05-19T11:56:06.154Z,61952.00
2019-05-19T11:57:19.269Z,60128.00
2019-05-19T11:58:19.498Z,54976.00
2019-05-19T11:59:19.249Z,60096.00
2019-05-19T12:00:19.245Z,60288.00
2019-05-19T12:01:19.233Z,60992.00
2019-05-19T12:02:19.219Z,65312.00
2019-05-19T12:03:19.215Z,58976.00
2019-05-19T12:04:19.200Z,58016.00
2019-05-19T12:05:19.191Z,55008.00
2019-05-19T12:06:19.187Z,15184.00
2019-05-19T12:07:19.175Z,11628.00
2019-05-19T12:08:19.165Z,9116.00
2019-05-19T12:09:19.150Z,8356.00
2019-05-19T12:10:19.138Z,12688.00
2019-05-19T12:11:19.131Z,51296.00
2019-05-19T12:12:19.119Z,47968.00
2019-05-19T12:13:19.115Z,45504.00
2019-05-19T12:14:19.099Z,43968.00
2019-05-19T12:15:19.092Z,41472.00
2019-05-19T12:16:19.085Z,40992.00
2019-05-19T12:17:19.065Z,41088.00
2019-05-19T12:18:19.058Z,41440.00
2019-05-19T12:19:19.048Z,41920.00
2019-05-19T12:20:19.037Z,42880.00
2019-05-19T12:21:19.027Z,44384.00
2019-05-19T12:22:19.015Z,40672.00
2019-05-19T12:23:19.004Z,33984.00
2019-05-19T12:24:18.996Z,29408.00
2019-05-19T12:25:18.989Z,27392.00
2019-05-19T12:26:23.049Z,26080.00
2019-05-19T12:27:18.963Z,26752.00
2019-05-19T12:28:18.961Z,28320.00
2019-05-19T12:29:18.944Z,29952.00
2019-05-19T12:30:18.940Z,30144.00
2019-05-19T12:31:18.923Z,30400.00
2019-05-19T12:32:18.950Z,29760.00
2019-05-19T12:33:18.901Z,28608.00
2019-05-19T12:34:18.895Z,27808.00
2019-05-19T12:35:18.892Z,27040.00
2019-05-19T12:36:18.875Z,25696.00
2019-05-19T12:37:18.861Z,24032.00
2019-05-19T12:38:18.855Z,21920.00
2019-05-19T12:39:18.847Z,19860.00
2019-05-19T12:40:22.323Z,7384.00
2019-05-19T12:41:18.828Z,12912.00
2019-05-19T12:42:18.810Z,6216.00
2019-05-19T12:43:18.805Z,6648.00
2019-05-19T12:44:18.798Z,12996.00
2019-05-19T12:45:18.781Z,9996.00
2019-05-19T12:46:18.777Z,9372.00
2019-05-19T12:47:18.759Z,8920.00
2019-05-19T12:48:18.751Z,8524.00
2019-05-19T12:49:18.739Z,8224.00
2019-05-19T12:50:18.728Z,8040.00
2019-05-19T12:51:18.762Z,7872.00
2019-05-19T12:52:18.705Z,7752.00
2019-05-19T12:53:18.701Z,7544.00
2019-05-19T12:54:18.694Z,7272.00
2019-05-19T12:55:18.679Z,7136.00
2019-05-19T12:56:18.676Z,7460.00
2019-05-19T12:57:21.192Z,7500.00
2019-05-19T12:58:18.775Z,7492.00
2019-05-19T12:59:18.635Z,7604.00
2019-05-19T13:00:18.630Z,7548.00
2019-05-19T13:01:18.613Z,7008.00
2019-05-19T13:02:18.602Z,6128.00
2019-05-19T13:03:18.602Z,6888.00
2019-05-19T13:04:18.587Z,7196.00
2019-05-19T13:05:18.571Z,6688.00
2019-05-19T13:06:18.560Z,6392.00
2019-05-19T13:07:18.558Z,6304.00
2019-05-19T13:08:18.539Z,5924.00
2019-05-19T13:09:18.529Z,5632.00
2019-05-19T13:10:18.626Z,5804.00
2019-05-19T13:11:18.511Z,5972.00
2019-05-19T13:12:18.501Z,6456.00
2019-05-19T13:13:18.494Z,6308.00
2019-05-19T13:14:18.477Z,6096.00
2019-05-19T13:15:18.465Z,6400.00
2019-05-19T13:16:18.463Z,6816.00
2019-05-19T13:17:18.448Z,7436.00
2019-05-19T13:18:18.435Z,8208.00
2019-05-19T13:19:18.433Z,8840.00
2019-05-19T13:20:18.411Z,8444.00
2019-05-19T13:21:18.797Z,7168.00
2019-05-19T13:22:18.412Z,5956.00
2019-05-19T13:23:18.415Z,5324.00
2019-05-19T13:24:18.383Z,5092.00
2019-05-19T13:25:18.366Z,4904.00
2019-05-19T13:26:18.353Z,4852.00
2019-05-19T13:27:18.338Z,4964.00
2019-05-19T13:28:18.326Z,5072.00
2019-05-19T13:29:18.317Z,5176.00
2019-05-19T13:30:18.312Z,5280.00
2019-05-19T13:31:18.298Z,5452.00
2019-05-19T13:32:18.287Z,5624.00
2019-05-19T13:33:18.275Z,5592.00
2019-05-19T13:34:18.267Z,5664.00
2019-05-19T13:35:18.253Z,5760.00
2019-05-19T13:36:18.247Z,5896.00
2019-05-19T13:37:18.236Z,5968.00
2019-05-19T13:38:18.224Z,5960.00
2019-05-19T13:39:18.213Z,5960.00
2019-05-19T13:40:18.206Z,6048.00
2019-05-19T13:41:18.192Z,6376.00
2019-05-19T13:42:18.189Z,7024.00
2019-05-19T13:43:18.169Z,7816.00
2019-05-19T13:44:18.169Z,8568.00
2019-05-19T13:45:18.169Z,9404.00
2019-05-19T13:46:18.174Z,10132.00
2019-05-19T13:47:18.180Z,10636.00
2019-05-19T13:48:18.124Z,10064.00
2019-05-19T13:49:18.152Z,8848.00
2019-05-19T13:50:18.127Z,7788.00
2019-05-19T13:51:18.129Z,6568.00
2019-05-19T13:52:18.135Z,5564.00
2019-05-19T13:53:18.063Z,4892.00
2019-05-19T13:54:18.056Z,4444.00
2019-05-19T13:55:18.041Z,4064.00
2019-05-19T13:56:18.042Z,3888.00
2019-05-19T13:57:18.021Z,3956.00
2019-05-19T13:58:18.010Z,4124.00
2019-05-19T13:59:18.005Z,4260.00
2019-05-19T14:00:17.992Z,4340.00
2019-05-19T14:01:28.131Z,4316.00
2019-05-19T14:02:18.995Z,4284.00
2019-05-19T14:03:17.957Z,4200.00
2019-05-19T14:04:17.949Z,4028.00
2019-05-19T14:05:17.940Z,3760.00
2019-05-19T14:06:17.937Z,3444.00
2019-05-19T14:07:17.935Z,3172.00
2019-05-19T14:08:17.903Z,3020.00
2019-05-19T14:09:17.894Z,3000.00
2019-05-19T14:10:17.885Z,2928.00
2019-05-19T14:11:17.872Z,2912.00
2019-05-19T14:12:17.860Z,3024.00
2019-05-19T14:13:17.856Z,3160.00
2019-05-19T14:14:17.850Z,3320.00
2019-05-19T14:15:17.829Z,3396.00
2019-05-19T14:16:17.822Z,3420.00
2019-05-19T14:17:17.870Z,3504.00
2019-05-19T14:18:17.816Z,3636.00
2019-05-19T14:19:17.784Z,3896.00
2019-05-19T14:20:17.774Z,4256.00
2019-05-19T14:21:17.764Z,4604.00
2019-05-19T14:22:17.751Z,5032.00
2019-05-19T14:23:17.741Z,5600.00
2019-05-19T14:24:17.736Z,6132.00